AirNav   ATP
 
 1046 users online  

JLA Quartz Creek Airport
Cooper Landing, Alaska, USA

GOING TO COOPER LANDING?


FAA INFORMATION EFFECTIVE 16 AUGUST 2018

Location

FAA Identifier: JLA
Lat/Long: 60-29-03.3500N / 149-43-22.4400W
60-29.055833N / 149-43.374000W
60.4842639 / -149.7229000
(estimated)
Elevation: 466 ft. / 142 m (estimated)
Variation: 25E (1985)
From city: 3 miles W of COOPER LANDING, AK
Time zone: UTC -8 (UTC -9 during Standard Time)
Zip code: 99572

Airport Operations

Airport use: Open to the public
Control tower: no
ARTCC: ANCHORAGE CENTER
FSS: KENAI FLIGHT SERVICE STATION [907-283-8469]
NOTAMs facility: ENA (NOTAM-D service available)
Attendance: UNATNDD
Wind indicator: yes, WINDSOCK IS BELOW TREELINE AND MAY BE UNRELIABLE.
Segmented circle: no

Airport Communications

CTAF: 122.9

Nearby radio navigation aids

NDB name  Hdg/Dist  Freq  Var  ID
SOLDOTNA070/34.234619EOLT --- .-.. -

Airport Services

Parking: tiedowns
Airframe service: NONE
Powerplant service: NONE
Bottled oxygen: NONE
Bulk oxygen: NONE

Runway Information

Runway 4/22

Dimensions: 2200 x 60 ft. / 671 x 18 m
Surface: gravel/dirt, in good condition
Runway edge markings: RY 04/22 MARKED WITH REFLECTIVE THLD PANELS.
Gradient: NORTHEAST
RUNWAY 4  RUNWAY 22
Latitude: 60-28.956500N60-29.155167N
Longitude: 149-43.679333W149-43.068667W
Elevation: 459.0 ft.466.0 ft.
Gradient: 0.3% UP0.1%
Traffic pattern: leftleft
Runway heading: 032 magnetic, 057 true212 magnetic, 237 true
Obstructions: 46 ft. trees, 369 ft. from runway, 126 ft. left of centerline, 7:1 slope to clear
MTN LCTD 2 SM FM APCH END.
65 ft. trees, 450 ft. from runway, 154 ft. left of centerline, 8:1 slope to clear

Airport Ownership and Management from official FAA records

Ownership: Publicly-owned
Owner: ALASKA DOT&PF CENTRAL REGION
P O BOX 196900
ANCHORAGE, AK 99519-6900
Phone 907-269-0770
Manager: SEAN MONTGOMERY/CARL HIGH
STATE OF ALASKA - DOTPF, P.O. BOX 1327
SOLDOTNA, AK 99669
Phone 907-262-2199

Airport Operational Statistics

Aircraft based on the field: 3
Single engine airplanes: 3
    
Aircraft operations: avg 38/month *
89% transient general aviation
11% local general aviation
* for 12-month period ending 31 December 2013

Additional Remarks

RY 04/22 EDGES NOT MKD.
STATE MAINTENANCE ON IRREGULAR BASIS, RCMD VISUAL INSPECTION PRIOR TO LANDING.
WX CAMERA AVBL ON INTERNET AT HTTP://AVCAMS.FAA.GOV

Instrument Procedures

There are no published instrument procedures at JLA.

Some nearby airports with instrument procedures:

PAWD - Seward Airport (23 nm SE)
PASX - Soldotna Airport (39 nm W)
PANC - Ted Stevens Anchorage International Airport (42 nm N)
PAMR - Merrill Field Airport (44 nm N)
PAEN - Kenai Municipal Airport (45 nm W)
 
Loc | Ops | Rwys | IFR | FBO | Links
Com | Nav | Svcs | Stats | Notes

Crowley
 
Area around JLA (Quartz Creek Airport)
 
Road maps at: MapQuest Bing Google
 
Aerial photo
WARNING: Photo may not be current or correct
Aerial photo of JLA (Quartz Creek Airport)
Do you have a better or more recent aerial photo of Quartz Creek Airport that you would like to share? If so, please send us your photo.

 
Sectional chart

 
Airport distance calculator
Flying to Quartz Creek Airport? Find the distance to fly.

From to JLA

Sunrise and sunset
Times for 21-Aug-2018
 Local
(UTC-8)
 Zulu
(UTC)
Morning civil twilight05:3813:38
Sunrise06:2714:27
Sunset21:3705:37
Evening civil twilight22:2606:26

Current date and time
Zulu (UTC)  22-Aug-2018 01:50:59
Local (UTC-8)  21-Aug-2018 17:50:59
 
METAR
PAWD 
24nm S 
220053Z AUTO 35007KT 310V020 10SM -RA BKN050 OVC065 16/14 A2964 RMK AO2 SLP038 P0002 T01560139 TSNO
PATO 
31nm NE 
220139Z AUTO VRB05KT 8SM -RA FEW006 BKN023 OVC047 13/12 A2966 RMK AO2 P0000 T01280117 TSNO $
PASX 
39nm W 
220056Z AUTO VRB05KT 10SM SCT011 BKN019 OVC025 14/12 A2971 RMK AO2 SLP068 T01440117
PANC 
42nm N 
220120Z 25006KT 7SM -RA SCT005 BKN014 OVC060 14/12 A2967 RMK AO2 P0002 T01390122
PALH 
43nm N 
220123Z 28004KT 9SM -RA BKN008 BKN026 OVC080 14/13 A2968 RMK AO2 P0002 T01390128
PAMR 
44nm N 
220131Z 24004KT 10SM RA BKN006 OVC011 13/13 A2967 RMK AO2 P0002 T01330133
PAEN 
45nm W 
220053Z 22011KT 10SM SCT007 OVC070 13/11 A2968 RMK AO2 SLP053 T01330111
PAED 
46nm N 
220056Z 28010KT 4SM -RA FEW000 OVC003 13/13 A2966 RMK AO2A FEW000 BR SLP039 P0006 T01280128
PAFR 
47nm N 
220058Z AUTO 25006KT 3SM -RA BR OVC003 13/12 A2964 RMK AO2 SLP043 P0012
TAF
PANC 
42nm N 
212106Z 2121/2224 VRB04KT P6SM -RA SCT005 BKN012 TEMPO 2121/2123 BKN005 FM220100 VRB05KT P6SM -RA SCT015 BKN040 FM221500 VRB04KT P6SM VCFG SCT002 BKN100 FM221900 VRB04KT P6SM BKN120
PAEN 
45nm W 
212014Z 2120/2218 25005KT P6SM -SHRA FEW008 SCT015 BKN040 TEMPO 2120/2123 BKN015 FM220000 22010KT P6SM SCT040 BKN070 FM221200 20006KT P6SM VCFG SCT002 BKN100
PAED 
46nm N 
212215Z 2122/2301 01006KT 8000 -RA VCFG SCT003 BKN006 OVC055 600809 QNH2962INS TEMPO 2122/2124 3200 RA BR BKN007 BECMG 2206/2207 22006KT 8000 BR BKN030 OVC080 600809 QNH2972INS BECMG 2211/2212 VRB06KT 9999 NSW BKN055 OVC080 600805 QNH2978INS BECMG 2219/2220 25006KT 9999 BKN070 QNH2982INS TX16/2123Z TN11/2215Z
NOTAMs
Click for the latest NOTAMs
NOTAMs are issued by the DoD/FAA and will open in a separate window not controlled by AirNav.

 

 
 

Would you like to see your business listed on this page?

 If your business provides an interesting product or service to pilots, flight crews, aircraft, or users of the Quartz Creek Airport, you should consider listing it here.  To start the listing process, click on the button below
 
Add a business
 

Other Pages about Quartz Creek Airport

Update a link
 
Copyright © AirNav, LLC. All rights reserved. Privacy Policy  Contact